Aérodrome :
LOGIN :

S'inscrire | Disclaimer

   EN    FR    IT 

 










Légende :    VFR   VFR Marginal   IFR   IFR Intensif   IFR Très Intensif
Visi : 
Plafond : 
>= 8 km
>= 3000ft
5 à 8 km
1000 à 3000 ft
1500m à 5 km
500 à 1000 ft
800 à 1500m
200 à 500 ft
< 800m
< 200 ft
Symboles :   Orages  Brouillard  Fortes neiges  Fortes précipitations  Vent > 20 kt
SIGMETs :   Divers  Orages  Givrage  Turbulence  Onde Orograph.  Cendres Volcan.







- Altitude de l'aérodrome : 1 ft
- Voir les cartes d'approche


EGCK - Caernarfon

DERNIER METAR :
  • 221650Z 32012KT 9999 SCT025 BKN045 05/00 Q0998

METARs EXPIRÉS :
  • 221620Z 30015KT 9999 BKN027 05/00 Q0998
  • 221550Z 30016KT 9999 FEW018 SCT032 05/00 Q0998
  • 221520Z 30016KT 9999 FEW018 BKN022 05/00 Q0998
  • 221450Z 30013KT 9999 BKN022 BKN034 05/00 Q0998
  • 221420Z 30016KT 9999 BKN016 BKN031 05/00 Q0999

TAF TAF EGCK
Valide du 22 à 15h jusqu'au 23 à 00h UTC


221358Z 2215/2224 29009KT 9999 SCT025
PROB30
TEMPO 2215/2224 4000 SHRASN
Pas de NOTAMs connus pour ce terrain.
1 SIGMET publié pour la FIR London (EGTT) :
 
Turbulence forte
EGTT SIGMET 02 VALID 221430/221830 EGRR
EGTT LONDON FIR SEV TURB FCST WI N5500 W00530 - N5500 W00400 - N5334 W00245 - N5124 W00151 - N5107 W00402 - N5355 W00530 - N5500 W00530 FL160/400 MOV E 15KT NC=



MET'MAP, la Météo Aéronautique d'un coup d'oeil ! - Copyright ORBIFLY Décembre 2007 - Disclaimer

ORBIFLY MET'MAP TEAM :

Programmation & Développement : Alexandra Zaïnal
Conception & Développement : Baudouin d'Aumeries
Co-Programmation & Développement : Marc-Olivier Méhu
Soutien technique & logistique : Manuel Goepfert

Contact : metmap@orbifly.com




SOURCES & CREDITS :

   NOAA